sensor_id;sensor_type;location;lat;lon;timestamp;P1;durP1;ratioP1;P2;durP2;ratioP2
20731;SDS011;10527;52.124;5.196;2023-12-14T00:01:18;8.60;;;7.40;;
20731;SDS011;10527;52.124;5.196;2023-12-14T00:03:46;9.57;;;6.80;;
20731;SDS011;10527;52.124;5.196;2023-12-14T00:06:13;9.93;;;7.70;;
20731;SDS011;10527;52.124;5.196;2023-12-14T00:08:41;12.07;;;6.73;;
20731;SDS011;10527;52.124;5.196;2023-12-14T00:11:09;8.57;;;7.00;;
20731;SDS011;10527;52.124;5.196;2023-12-14T00:13:38;8.80;;;6.87;;
20731;SDS011;10527;52.124;5.196;2023-12-14T00:16:06;8.50;;;6.97;;
20731;SDS011;10527;52.124;5.196;2023-12-14T00:18:35;9.40;;;7.07;;
20731;SDS011;10527;52.124;5.196;2023-12-14T00:21:03;9.60;;;6.70;;
20731;SDS011;10527;52.124;5.196;2023-12-14T00:23:32;9.07;;;7.27;;
20731;SDS011;10527;52.124;5.196;2023-12-14T00:26:01;9.87;;;7.47;;
20731;SDS011;10527;52.124;5.196;2023-12-14T00:28:29;8.97;;;7.07;;
20731;SDS011;10527;52.124;5.196;2023-12-14T00:30:59;9.03;;;6.70;;
20731;SDS011;10527;52.124;5.196;2023-12-14T00:33:27;7.27;;;6.47;;
20731;SDS011;10527;52.124;5.196;2023-12-14T00:35:54;7.97;;;6.63;;
20731;SDS011;10527;52.124;5.196;2023-12-14T00:38:22;7.70;;;6.33;;
20731;SDS011;10527;52.124;5.196;2023-12-14T00:40:49;7.93;;;6.50;;
20731;SDS011;10527;52.124;5.196;2023-12-14T00:43:17;7.50;;;5.83;;
20731;SDS011;10527;52.124;5.196;2023-12-14T00:45:44;7.50;;;6.60;;
20731;SDS011;10527;52.124;5.196;2023-12-14T00:48:12;8.47;;;5.97;;
20731;SDS011;10527;52.124;5.196;2023-12-14T00:50:40;7.77;;;6.27;;
20731;SDS011;10527;52.124;5.196;2023-12-14T00:53:07;8.53;;;6.30;;
20731;SDS011;10527;52.124;5.196;2023-12-14T00:55:35;7.90;;;5.97;;
20731;SDS011;10527;52.124;5.196;2023-12-14T00:58:02;9.07;;;6.77;;
20731;SDS011;10527;52.124;5.196;2023-12-14T01:00:30;9.23;;;6.53;;
20731;SDS011;10527;52.124;5.196;2023-12-14T01:02:57;8.43;;;7.07;;
20731;SDS011;10527;52.124;5.196;2023-12-14T01:05:25;9.60;;;7.40;;
20731;SDS011;10527;52.124;5.196;2023-12-14T01:07:52;8.47;;;7.37;;
20731;SDS011;10527;52.124;5.196;2023-12-14T01:10:20;8.90;;;7.33;;
20731;SDS011;10527;52.124;5.196;2023-12-14T01:12:48;8.93;;;7.43;;
20731;SDS011;10527;52.124;5.196;2023-12-14T01:15:16;9.77;;;6.97;;
20731;SDS011;10527;52.124;5.196;2023-12-14T01:17:43;9.20;;;7.33;;
20731;SDS011;10527;52.124;5.196;2023-12-14T01:20:11;7.30;;;6.40;;
20731;SDS011;10527;52.124;5.196;2023-12-14T01:22:39;8.33;;;7.13;;
20731;SDS011;10527;52.124;5.196;2023-12-14T01:25:07;9.90;;;6.87;;
20731;SDS011;10527;52.124;5.196;2023-12-14T01:27:34;8.77;;;6.73;;
20731;SDS011;10527;52.124;5.196;2023-12-14T01:30:02;7.23;;;6.40;;
20731;SDS011;10527;52.124;5.196;2023-12-14T01:32:29;9.20;;;7.27;;
20731;SDS011;10527;52.124;5.196;2023-12-14T01:34:57;7.80;;;7.00;;
20731;SDS011;10527;52.124;5.196;2023-12-14T01:37:24;8.97;;;6.33;;
20731;SDS011;10527;52.124;5.196;2023-12-14T01:39:54;8.37;;;7.00;;
20731;SDS011;10527;52.124;5.196;2023-12-14T01:42:21;7.93;;;7.13;;
20731;SDS011;10527;52.124;5.196;2023-12-14T01:44:49;7.27;;;5.93;;
20731;SDS011;10527;52.124;5.196;2023-12-14T01:47:16;8.67;;;7.00;;
20731;SDS011;10527;52.124;5.196;2023-12-14T01:49:44;7.83;;;7.03;;
20731;SDS011;10527;52.124;5.196;2023-12-14T01:52:11;7.83;;;6.77;;
20731;SDS011;10527;52.124;5.196;2023-12-14T01:54:40;8.17;;;7.33;;
20731;SDS011;10527;52.124;5.196;2023-12-14T01:57:07;7.63;;;6.63;;
20731;SDS011;10527;52.124;5.196;2023-12-14T01:59:35;8.27;;;7.33;;
20731;SDS011;10527;52.124;5.196;2023-12-14T02:02:02;8.43;;;6.80;;
20731;SDS011;10527;52.124;5.196;2023-12-14T02:04:32;8.47;;;7.23;;
20731;SDS011;10527;52.124;5.196;2023-12-14T02:06:59;7.77;;;6.97;;
20731;SDS011;10527;52.124;5.196;2023-12-14T02:09:27;8.97;;;7.53;;
20731;SDS011;10527;52.124;5.196;2023-12-14T02:11:54;8.80;;;6.83;;
20731;SDS011;10527;52.124;5.196;2023-12-14T02:14:21;8.90;;;7.00;;
20731;SDS011;10527;52.124;5.196;2023-12-14T02:16:49;8.30;;;7.00;;
20731;SDS011;10527;52.124;5.196;2023-12-14T02:19:17;8.87;;;7.23;;
20731;SDS011;10527;52.124;5.196;2023-12-14T02:21:44;9.30;;;7.57;;
20731;SDS011;10527;52.124;5.196;2023-12-14T02:24:14;9.93;;;7.70;;
20731;SDS011;10527;52.124;5.196;2023-12-14T02:26:41;10.33;;;8.40;;
20731;SDS011;10527;52.124;5.196;2023-12-14T02:29:27;9.73;;;8.20;;
20731;SDS011;10527;52.124;5.196;2023-12-14T02:31:55;8.63;;;7.63;;
20731;SDS011;10527;52.124;5.196;2023-12-14T02:34:23;11.17;;;8.37;;
20731;SDS011;10527;52.124;5.196;2023-12-14T02:36:51;9.50;;;7.73;;
20731;SDS011;10527;52.124;5.196;2023-12-14T02:39:19;10.83;;;7.83;;
20731;SDS011;10527;52.124;5.196;2023-12-14T02:41:47;9.43;;;7.53;;
20731;SDS011;10527;52.124;5.196;2023-12-14T02:44:14;9.77;;;8.47;;
20731;SDS011;10527;52.124;5.196;2023-12-14T02:46:46;10.50;;;8.57;;
20731;SDS011;10527;52.124;5.196;2023-12-14T02:49:13;10.87;;;8.43;;
20731;SDS011;10527;52.124;5.196;2023-12-14T02:51:41;11.97;;;8.40;;
20731;SDS011;10527;52.124;5.196;2023-12-14T02:54:08;9.53;;;7.23;;
20731;SDS011;10527;52.124;5.196;2023-12-14T02:56:35;9.93;;;8.90;;
20731;SDS011;10527;52.124;5.196;2023-12-14T02:59:02;10.80;;;8.70;;
20731;SDS011;10527;52.124;5.196;2023-12-14T03:01:30;11.47;;;7.70;;
20731;SDS011;10527;52.124;5.196;2023-12-14T03:03:58;9.97;;;7.67;;
20731;SDS011;10527;52.124;5.196;2023-12-14T03:06:25;11.07;;;8.30;;
20731;SDS011;10527;52.124;5.196;2023-12-14T03:08:52;12.30;;;8.77;;
20731;SDS011;10527;52.124;5.196;2023-12-14T03:11:23;11.17;;;7.83;;
20731;SDS011;10527;52.124;5.196;2023-12-14T03:13:52;10.03;;;7.83;;
20731;SDS011;10527;52.124;5.196;2023-12-14T03:16:19;11.63;;;7.93;;
20731;SDS011;10527;52.124;5.196;2023-12-14T03:18:47;12.80;;;7.77;;
20731;SDS011;10527;52.124;5.196;2023-12-14T03:21:19;9.77;;;7.97;;
20731;SDS011;10527;52.124;5.196;2023-12-14T03:23:47;11.10;;;8.47;;
20731;SDS011;10527;52.124;5.196;2023-12-14T03:26:14;13.67;;;8.57;;
20731;SDS011;10527;52.124;5.196;2023-12-14T03:28:42;11.37;;;8.53;;
20731;SDS011;10527;52.124;5.196;2023-12-14T03:31:10;14.87;;;8.70;;
20731;SDS011;10527;52.124;5.196;2023-12-14T03:33:39;11.77;;;8.67;;
20731;SDS011;10527;52.124;5.196;2023-12-14T03:36:08;11.57;;;9.10;;
20731;SDS011;10527;52.124;5.196;2023-12-14T03:38:35;14.07;;;8.80;;
20731;SDS011;10527;52.124;5.196;2023-12-14T03:41:03;12.43;;;8.07;;
20731;SDS011;10527;52.124;5.196;2023-12-14T03:43:31;9.10;;;7.20;;
20731;SDS011;10527;52.124;5.196;2023-12-14T03:45:58;15.07;;;8.13;;
20731;SDS011;10527;52.124;5.196;2023-12-14T03:48:26;12.23;;;7.50;;
20731;SDS011;10527;52.124;5.196;2023-12-14T03:50:54;10.47;;;7.60;;
20731;SDS011;10527;52.124;5.196;2023-12-14T03:53:21;11.67;;;7.27;;
20731;SDS011;10527;52.124;5.196;2023-12-14T03:55:49;11.83;;;7.03;;
20731;SDS011;10527;52.124;5.196;2023-12-14T03:58:16;9.17;;;7.17;;
20731;SDS011;10527;52.124;5.196;2023-12-14T04:00:44;12.43;;;7.47;;
20731;SDS011;10527;52.124;5.196;2023-12-14T04:03:11;11.23;;;7.60;;
20731;SDS011;10527;52.124;5.196;2023-12-14T04:05:39;10.33;;;7.50;;
20731;SDS011;10527;52.124;5.196;2023-12-14T04:08:06;10.53;;;7.43;;
20731;SDS011;10527;52.124;5.196;2023-12-14T04:10:34;10.13;;;6.90;;
20731;SDS011;10527;52.124;5.196;2023-12-14T04:13:01;10.60;;;7.07;;
20731;SDS011;10527;52.124;5.196;2023-12-14T04:15:29;10.77;;;6.83;;
20731;SDS011;10527;52.124;5.196;2023-12-14T04:17:56;11.10;;;6.93;;
20731;SDS011;10527;52.124;5.196;2023-12-14T04:20:24;9.80;;;7.10;;
20731;SDS011;10527;52.124;5.196;2023-12-14T04:22:51;8.80;;;6.07;;
20731;SDS011;10527;52.124;5.196;2023-12-14T04:25:18;12.00;;;6.53;;
20731;SDS011;10527;52.124;5.196;2023-12-14T04:27:46;8.87;;;5.80;;
20731;SDS011;10527;52.124;5.196;2023-12-14T04:30:14;9.37;;;5.97;;
20731;SDS011;10527;52.124;5.196;2023-12-14T04:32:41;9.40;;;5.20;;
20731;SDS011;10527;52.124;5.196;2023-12-14T04:35:09;9.00;;;6.50;;
20731;SDS011;10527;52.124;5.196;2023-12-14T04:37:37;9.27;;;5.60;;
20731;SDS011;10527;52.124;5.196;2023-12-14T04:40:04;7.43;;;5.63;;
20731;SDS011;10527;52.124;5.196;2023-12-14T04:42:33;5.50;;;4.60;;
20731;SDS011;10527;52.124;5.196;2023-12-14T04:45:01;8.77;;;5.40;;
20731;SDS011;10527;52.124;5.196;2023-12-14T04:47:30;9.00;;;5.73;;
20731;SDS011;10527;52.124;5.196;2023-12-14T04:50:14;7.93;;;5.87;;
20731;SDS011;10527;52.124;5.196;2023-12-14T04:52:42;8.50;;;5.53;;
20731;SDS011;10527;52.124;5.196;2023-12-14T04:55:10;6.47;;;4.97;;
20731;SDS011;10527;52.124;5.196;2023-12-14T04:57:37;8.50;;;5.00;;
20731;SDS011;10527;52.124;5.196;2023-12-14T05:00:05;8.87;;;4.97;;
20731;SDS011;10527;52.124;5.196;2023-12-14T05:02:34;6.57;;;4.90;;
20731;SDS011;10527;52.124;5.196;2023-12-14T05:05:01;9.10;;;5.80;;
20731;SDS011;10527;52.124;5.196;2023-12-14T05:07:29;8.43;;;5.63;;
20731;SDS011;10527;52.124;5.196;2023-12-14T05:09:57;8.63;;;4.80;;
20731;SDS011;10527;52.124;5.196;2023-12-14T05:12:25;7.33;;;4.70;;
20731;SDS011;10527;52.124;5.196;2023-12-14T05:14:55;6.63;;;4.90;;
20731;SDS011;10527;52.124;5.196;2023-12-14T05:17:22;6.90;;;4.33;;
20731;SDS011;10527;52.124;5.196;2023-12-14T05:19:49;6.30;;;4.83;;
20731;SDS011;10527;52.124;5.196;2023-12-14T05:22:17;6.03;;;4.63;;
20731;SDS011;10527;52.124;5.196;2023-12-14T05:24:46;6.57;;;4.80;;
20731;SDS011;10527;52.124;5.196;2023-12-14T05:27:14;6.97;;;4.80;;
20731;SDS011;10527;52.124;5.196;2023-12-14T05:29:41;5.70;;;4.40;;
20731;SDS011;10527;52.124;5.196;2023-12-14T05:32:09;7.20;;;4.57;;
20731;SDS011;10527;52.124;5.196;2023-12-14T05:34:36;8.27;;;3.43;;
20731;SDS011;10527;52.124;5.196;2023-12-14T05:37:03;6.70;;;4.17;;
20731;SDS011;10527;52.124;5.196;2023-12-14T05:39:31;7.53;;;4.10;;
20731;SDS011;10527;52.124;5.196;2023-12-14T05:41:58;7.63;;;4.57;;
20731;SDS011;10527;52.124;5.196;2023-12-14T05:44:27;6.27;;;4.27;;
20731;SDS011;10527;52.124;5.196;2023-12-14T05:46:54;5.50;;;4.07;;
20731;SDS011;10527;52.124;5.196;2023-12-14T05:49:22;5.87;;;4.67;;
20731;SDS011;10527;52.124;5.196;2023-12-14T05:51:49;6.20;;;4.23;;
20731;SDS011;10527;52.124;5.196;2023-12-14T05:54:17;5.27;;;4.30;;
20731;SDS011;10527;52.124;5.196;2023-12-14T05:56:44;5.07;;;4.17;;
20731;SDS011;10527;52.124;5.196;2023-12-14T05:59:11;7.07;;;4.80;;
20731;SDS011;10527;52.124;5.196;2023-12-14T06:01:39;6.43;;;4.70;;
20731;SDS011;10527;52.124;5.196;2023-12-14T06:04:13;6.90;;;4.03;;
20731;SDS011;10527;52.124;5.196;2023-12-14T06:06:41;6.50;;;4.23;;
20731;SDS011;10527;52.124;5.196;2023-12-14T06:09:08;6.40;;;4.70;;
20731;SDS011;10527;52.124;5.196;2023-12-14T06:11:36;8.07;;;4.40;;
20731;SDS011;10527;52.124;5.196;2023-12-14T06:14:03;5.40;;;3.93;;
20731;SDS011;10527;52.124;5.196;2023-12-14T06:16:31;8.13;;;4.90;;
20731;SDS011;10527;52.124;5.196;2023-12-14T06:18:59;5.27;;;4.33;;
20731;SDS011;10527;52.124;5.196;2023-12-14T06:21:29;5.73;;;4.40;;
20731;SDS011;10527;52.124;5.196;2023-12-14T06:23:57;6.13;;;4.10;;
20731;SDS011;10527;52.124;5.196;2023-12-14T06:26:27;5.77;;;4.20;;
20731;SDS011;10527;52.124;5.196;2023-12-14T06:28:55;4.53;;;3.80;;
20731;SDS011;10527;52.124;5.196;2023-12-14T06:31:22;6.07;;;4.63;;
20731;SDS011;10527;52.124;5.196;2023-12-14T06:33:50;5.70;;;4.40;;
20731;SDS011;10527;52.124;5.196;2023-12-14T06:36:17;6.63;;;4.53;;
20731;SDS011;10527;52.124;5.196;2023-12-14T06:38:45;5.53;;;4.30;;
20731;SDS011;10527;52.124;5.196;2023-12-14T06:41:22;7.50;;;4.40;;
20731;SDS011;10527;52.124;5.196;2023-12-14T06:44:02;8.37;;;4.97;;
20731;SDS011;10527;52.124;5.196;2023-12-14T06:46:30;9.57;;;5.80;;
20731;SDS011;10527;52.124;5.196;2023-12-14T06:48:57;6.75;;;5.63;;
20731;SDS011;10527;52.124;5.196;2023-12-14T06:51:28;5.43;;;4.53;;
20731;SDS011;10527;52.124;5.196;2023-12-14T06:53:56;6.23;;;4.80;;
20731;SDS011;10527;52.124;5.196;2023-12-14T06:59:19;7.50;;;4.50;;
20731;SDS011;10527;52.124;5.196;2023-12-14T07:01:47;7.60;;;4.93;;
20731;SDS011;10527;52.124;5.196;2023-12-14T07:04:19;6.83;;;4.87;;
20731;SDS011;10527;52.124;5.196;2023-12-14T07:07:03;7.47;;;4.77;;
20731;SDS011;10527;52.124;5.196;2023-12-14T07:09:31;6.73;;;4.70;;
20731;SDS011;10527;52.124;5.196;2023-12-14T07:11:58;7.43;;;5.10;;
20731;SDS011;10527;52.124;5.196;2023-12-14T07:14:28;7.23;;;4.87;;
20731;SDS011;10527;52.124;5.196;2023-12-14T07:16:56;7.17;;;5.30;;
20731;SDS011;10527;52.124;5.196;2023-12-14T07:19:23;8.30;;;5.57;;
20731;SDS011;10527;52.124;5.196;2023-12-14T07:21:50;7.77;;;5.37;;
20731;SDS011;10527;52.124;5.196;2023-12-14T07:24:18;9.50;;;5.32;;
20731;SDS011;10527;52.124;5.196;2023-12-14T07:26:45;6.77;;;4.93;;
20731;SDS011;10527;52.124;5.196;2023-12-14T07:29:13;7.33;;;5.27;;
20731;SDS011;10527;52.124;5.196;2023-12-14T07:31:40;7.60;;;5.10;;
20731;SDS011;10527;52.124;5.196;2023-12-14T07:34:08;10.27;;;5.80;;
20731;SDS011;10527;52.124;5.196;2023-12-14T07:36:36;8.60;;;6.43;;
20731;SDS011;10527;52.124;5.196;2023-12-14T07:39:03;6.20;;;4.60;;
20731;SDS011;10527;52.124;5.196;2023-12-14T07:41:32;5.80;;;4.70;;
20731;SDS011;10527;52.124;5.196;2023-12-14T07:43:59;6.33;;;4.60;;
20731;SDS011;10527;52.124;5.196;2023-12-14T07:46:31;6.00;;;4.70;;
20731;SDS011;10527;52.124;5.196;2023-12-14T07:48:59;6.30;;;4.37;;
20731;SDS011;10527;52.124;5.196;2023-12-14T07:51:29;6.27;;;4.10;;
20731;SDS011;10527;52.124;5.196;2023-12-14T07:53:56;5.33;;;4.10;;
20731;SDS011;10527;52.124;5.196;2023-12-14T07:56:24;6.40;;;4.60;;
20731;SDS011;10527;52.124;5.196;2023-12-14T07:58:53;6.27;;;4.20;;
20731;SDS011;10527;52.124;5.196;2023-12-14T08:01:21;6.33;;;4.50;;
20731;SDS011;10527;52.124;5.196;2023-12-14T08:03:48;6.70;;;4.70;;
20731;SDS011;10527;52.124;5.196;2023-12-14T08:06:16;6.13;;;4.87;;
20731;SDS011;10527;52.124;5.196;2023-12-14T08:08:44;5.57;;;4.30;;
20731;SDS011;10527;52.124;5.196;2023-12-14T08:11:11;6.73;;;4.87;;
20731;SDS011;10527;52.124;5.196;2023-12-14T08:13:39;5.93;;;4.97;;
20731;SDS011;10527;52.124;5.196;2023-12-14T08:16:09;8.60;;;6.37;;
20731;SDS011;10527;52.124;5.196;2023-12-14T08:18:40;6.37;;;5.10;;
20731;SDS011;10527;52.124;5.196;2023-12-14T08:21:08;6.17;;;4.67;;
20731;SDS011;10527;52.124;5.196;2023-12-14T08:23:38;8.13;;;6.20;;
20731;SDS011;10527;52.124;5.196;2023-12-14T08:26:06;8.17;;;5.67;;
20731;SDS011;10527;52.124;5.196;2023-12-14T08:28:34;7.03;;;5.13;;
20731;SDS011;10527;52.124;5.196;2023-12-14T08:31:02;5.37;;;4.63;;
20731;SDS011;10527;52.124;5.196;2023-12-14T08:33:31;7.27;;;4.63;;
20731;SDS011;10527;52.124;5.196;2023-12-14T08:35:59;7.37;;;4.53;;
20731;SDS011;10527;52.124;5.196;2023-12-14T08:38:26;5.67;;;4.20;;
20731;SDS011;10527;52.124;5.196;2023-12-14T08:40:53;5.93;;;4.80;;
20731;SDS011;10527;52.124;5.196;2023-12-14T08:43:21;6.27;;;4.63;;
20731;SDS011;10527;52.124;5.196;2023-12-14T08:45:48;5.30;;;4.10;;
20731;SDS011;10527;52.124;5.196;2023-12-14T08:48:16;5.70;;;4.70;;
20731;SDS011;10527;52.124;5.196;2023-12-14T08:50:43;5.43;;;4.33;;
20731;SDS011;10527;52.124;5.196;2023-12-14T08:53:11;5.97;;;4.47;;
20731;SDS011;10527;52.124;5.196;2023-12-14T08:55:39;6.27;;;4.93;;
20731;SDS011;10527;52.124;5.196;2023-12-14T08:58:06;6.73;;;4.00;;
20731;SDS011;10527;52.124;5.196;2023-12-14T09:00:33;6.07;;;4.10;;
20731;SDS011;10527;52.124;5.196;2023-12-14T09:03:01;5.10;;;4.27;;
20731;SDS011;10527;52.124;5.196;2023-12-14T09:05:29;5.17;;;4.60;;
20731;SDS011;10527;52.124;5.196;2023-12-14T09:07:57;6.53;;;4.17;;
20731;SDS011;10527;52.124;5.196;2023-12-14T09:10:25;4.93;;;4.10;;
20731;SDS011;10527;52.124;5.196;2023-12-14T09:12:52;5.70;;;3.60;;
20731;SDS011;10527;52.124;5.196;2023-12-14T09:15:20;5.70;;;3.53;;
20731;SDS011;10527;52.124;5.196;2023-12-14T09:17:47;4.47;;;3.13;;
20731;SDS011;10527;52.124;5.196;2023-12-14T09:20:15;4.30;;;3.47;;
20731;SDS011;10527;52.124;5.196;2023-12-14T09:22:42;7.03;;;3.73;;
20731;SDS011;10527;52.124;5.196;2023-12-14T09:25:09;4.70;;;3.20;;
20731;SDS011;10527;52.124;5.196;2023-12-14T09:27:37;5.57;;;3.47;;
20731;SDS011;10527;52.124;5.196;2023-12-14T09:30:05;4.57;;;2.90;;
20731;SDS011;10527;52.124;5.196;2023-12-14T09:32:34;2.87;;;2.60;;
20731;SDS011;10527;52.124;5.196;2023-12-14T09:35:01;4.60;;;3.13;;
20731;SDS011;10527;52.124;5.196;2023-12-14T09:37:29;4.57;;;3.13;;
20731;SDS011;10527;52.124;5.196;2023-12-14T09:39:56;4.67;;;3.63;;
20731;SDS011;10527;52.124;5.196;2023-12-14T09:42:24;3.43;;;2.90;;
20731;SDS011;10527;52.124;5.196;2023-12-14T09:44:52;4.10;;;3.30;;
20731;SDS011;10527;52.124;5.196;2023-12-14T09:47:20;4.33;;;3.37;;
20731;SDS011;10527;52.124;5.196;2023-12-14T09:49:48;4.53;;;3.03;;
20731;SDS011;10527;52.124;5.196;2023-12-14T09:52:17;4.70;;;3.07;;
20731;SDS011;10527;52.124;5.196;2023-12-14T09:54:44;5.07;;;2.97;;
20731;SDS011;10527;52.124;5.196;2023-12-14T09:57:11;3.70;;;2.70;;
20731;SDS011;10527;52.124;5.196;2023-12-14T09:59:38;3.17;;;2.63;;
20731;SDS011;10527;52.124;5.196;2023-12-14T10:02:12;4.27;;;2.60;;
20731;SDS011;10527;52.124;5.196;2023-12-14T10:04:42;6.57;;;4.47;;
20731;SDS011;10527;52.124;5.196;2023-12-14T10:07:11;4.43;;;3.07;;
20731;SDS011;10527;52.124;5.196;2023-12-14T10:09:42;3.70;;;2.83;;
20731;SDS011;10527;52.124;5.196;2023-12-14T10:12:10;5.27;;;2.77;;
20731;SDS011;10527;52.124;5.196;2023-12-14T10:14:38;3.47;;;2.70;;
20731;SDS011;10527;52.124;5.196;2023-12-14T10:17:19;3.80;;;3.17;;
20731;SDS011;10527;52.124;5.196;2023-12-14T10:19:49;4.23;;;2.90;;
20731;SDS011;10527;52.124;5.196;2023-12-14T10:22:17;3.37;;;2.80;;
20731;SDS011;10527;52.124;5.196;2023-12-14T10:24:45;3.30;;;2.70;;
20731;SDS011;10527;52.124;5.196;2023-12-14T10:27:14;5.43;;;2.57;;
20731;SDS011;10527;52.124;5.196;2023-12-14T10:29:49;3.80;;;2.90;;
20731;SDS011;10527;52.124;5.196;2023-12-14T10:32:17;2.90;;;2.57;;
20731;SDS011;10527;52.124;5.196;2023-12-14T10:34:46;4.27;;;2.80;;
20731;SDS011;10527;52.124;5.196;2023-12-14T10:37:13;3.80;;;2.93;;
20731;SDS011;10527;52.124;5.196;2023-12-14T10:39:45;3.80;;;2.80;;
20731;SDS011;10527;52.124;5.196;2023-12-14T10:42:15;3.53;;;2.53;;
20731;SDS011;10527;52.124;5.196;2023-12-14T10:44:48;3.27;;;2.93;;
20731;SDS011;10527;52.124;5.196;2023-12-14T10:47:21;3.53;;;2.57;;
20731;SDS011;10527;52.124;5.196;2023-12-14T10:49:50;2.67;;;2.43;;
20731;SDS011;10527;52.124;5.196;2023-12-14T10:52:25;3.43;;;3.00;;
20731;SDS011;10527;52.124;5.196;2023-12-14T10:54:55;5.03;;;2.90;;
20731;SDS011;10527;52.124;5.196;2023-12-14T10:57:28;3.40;;;2.30;;
20731;SDS011;10527;52.124;5.196;2023-12-14T10:59:59;4.07;;;2.83;;
20731;SDS011;10527;52.124;5.196;2023-12-14T11:02:28;4.87;;;4.33;;
20731;SDS011;10527;52.124;5.196;2023-12-14T11:05:05;3.73;;;3.00;;
20731;SDS011;10527;52.124;5.196;2023-12-14T11:07:49;5.17;;;2.27;;
20731;SDS011;10527;52.124;5.196;2023-12-14T11:10:22;4.07;;;2.60;;
20731;SDS011;10527;52.124;5.196;2023-12-14T11:12:55;3.87;;;2.60;;
20731;SDS011;10527;52.124;5.196;2023-12-14T11:15:27;5.07;;;3.40;;
20731;SDS011;10527;52.124;5.196;2023-12-14T11:21:00;5.07;;;3.00;;
20731;SDS011;10527;52.124;5.196;2023-12-14T11:23:29;3.73;;;2.60;;
20731;SDS011;10527;52.124;5.196;2023-12-14T11:26:02;4.20;;;2.77;;
20731;SDS011;10527;52.124;5.196;2023-12-14T11:28:31;3.90;;;2.80;;
20731;SDS011;10527;52.124;5.196;2023-12-14T11:31:00;3.93;;;2.90;;
20731;SDS011;10527;52.124;5.196;2023-12-14T11:33:28;3.93;;;2.97;;
20731;SDS011;10527;52.124;5.196;2023-12-14T11:35:56;3.27;;;2.60;;
20731;SDS011;10527;52.124;5.196;2023-12-14T11:38:24;3.80;;;2.97;;
20731;SDS011;10527;52.124;5.196;2023-12-14T11:40:52;3.27;;;2.80;;
20731;SDS011;10527;52.124;5.196;2023-12-14T11:43:19;4.13;;;2.90;;
20731;SDS011;10527;52.124;5.196;2023-12-14T11:45:48;4.17;;;2.70;;
20731;SDS011;10527;52.124;5.196;2023-12-14T11:48:16;3.43;;;2.87;;
20731;SDS011;10527;52.124;5.196;2023-12-14T11:50:44;3.67;;;2.50;;
20731;SDS011;10527;52.124;5.196;2023-12-14T11:53:12;3.50;;;2.80;;
20731;SDS011;10527;52.124;5.196;2023-12-14T11:55:40;4.50;;;3.40;;
20731;SDS011;10527;52.124;5.196;2023-12-14T11:58:10;4.70;;;3.13;;
20731;SDS011;10527;52.124;5.196;2023-12-14T12:00:42;3.57;;;2.77;;
20731;SDS011;10527;52.124;5.196;2023-12-14T12:05:46;5.67;;;3.17;;
20731;SDS011;10527;52.124;5.196;2023-12-14T12:08:18;3.20;;;2.50;;
20731;SDS011;10527;52.124;5.196;2023-12-14T12:10:47;3.90;;;3.00;;
20731;SDS011;10527;52.124;5.196;2023-12-14T12:13:19;5.03;;;3.27;;
20731;SDS011;10527;52.124;5.196;2023-12-14T12:15:47;5.17;;;3.70;;
20731;SDS011;10527;52.124;5.196;2023-12-14T12:18:16;5.27;;;4.27;;
20731;SDS011;10527;52.124;5.196;2023-12-14T12:20:44;4.43;;;3.10;;
20731;SDS011;10527;52.124;5.196;2023-12-14T12:23:11;5.43;;;3.67;;
20731;SDS011;10527;52.124;5.196;2023-12-14T12:25:40;7.60;;;3.40;;
20731;SDS011;10527;52.124;5.196;2023-12-14T12:28:08;5.03;;;3.20;;
20731;SDS011;10527;52.124;5.196;2023-12-14T12:30:35;6.17;;;3.63;;
20731;SDS011;10527;52.124;5.196;2023-12-14T12:33:06;4.40;;;3.17;;
20731;SDS011;10527;52.124;5.196;2023-12-14T12:35:34;6.10;;;3.67;;
20731;SDS011;10527;52.124;5.196;2023-12-14T12:38:02;12.67;;;7.63;;
20731;SDS011;10527;52.124;5.196;2023-12-14T12:40:30;18.00;;;11.40;;
20731;SDS011;10527;52.124;5.196;2023-12-14T12:42:59;11.87;;;7.20;;
20731;SDS011;10527;52.124;5.196;2023-12-14T12:45:27;8.87;;;5.73;;
20731;SDS011;10527;52.124;5.196;2023-12-14T12:47:55;7.10;;;5.03;;
20731;SDS011;10527;52.124;5.196;2023-12-14T12:50:23;7.07;;;5.47;;
20731;SDS011;10527;52.124;5.196;2023-12-14T12:52:51;7.47;;;5.17;;
20731;SDS011;10527;52.124;5.196;2023-12-14T12:55:20;4.40;;;3.43;;
20731;SDS011;10527;52.124;5.196;2023-12-14T12:57:48;4.23;;;3.23;;
20731;SDS011;10527;52.124;5.196;2023-12-14T13:00:16;9.33;;;7.17;;
20731;SDS011;10527;52.124;5.196;2023-12-14T13:02:44;6.13;;;5.37;;
20731;SDS011;10527;52.124;5.196;2023-12-14T13:05:12;8.43;;;4.70;;
20731;SDS011;10527;52.124;5.196;2023-12-14T13:07:44;6.33;;;4.23;;
20731;SDS011;10527;52.124;5.196;2023-12-14T13:10:13;5.33;;;4.27;;
20731;SDS011;10527;52.124;5.196;2023-12-14T13:12:56;6.30;;;3.77;;
20731;SDS011;10527;52.124;5.196;2023-12-14T13:15:23;6.47;;;3.90;;
20731;SDS011;10527;52.124;5.196;2023-12-14T13:17:52;8.27;;;4.07;;
20731;SDS011;10527;52.124;5.196;2023-12-14T13:22:51;9.83;;;5.73;;
20731;SDS011;10527;52.124;5.196;2023-12-14T13:25:19;7.83;;;5.70;;
20731;SDS011;10527;52.124;5.196;2023-12-14T13:27:49;8.57;;;5.20;;
20731;SDS011;10527;52.124;5.196;2023-12-14T13:30:17;5.10;;;4.13;;
20731;SDS011;10527;52.124;5.196;2023-12-14T13:32:45;8.03;;;4.70;;
20731;SDS011;10527;52.124;5.196;2023-12-14T13:35:13;6.23;;;5.10;;
20731;SDS011;10527;52.124;5.196;2023-12-14T13:37:41;7.23;;;5.33;;
20731;SDS011;10527;52.124;5.196;2023-12-14T13:40:08;5.93;;;5.33;;
20731;SDS011;10527;52.124;5.196;2023-12-14T13:42:40;6.13;;;5.20;;
20731;SDS011;10527;52.124;5.196;2023-12-14T13:45:24;9.53;;;5.83;;
20731;SDS011;10527;52.124;5.196;2023-12-14T13:47:55;7.63;;;5.40;;
20731;SDS011;10527;52.124;5.196;2023-12-14T13:50:24;8.67;;;6.07;;
20731;SDS011;10527;52.124;5.196;2023-12-14T13:52:54;6.87;;;5.50;;
20731;SDS011;10527;52.124;5.196;2023-12-14T13:55:21;9.03;;;5.93;;
20731;SDS011;10527;52.124;5.196;2023-12-14T13:57:48;8.57;;;5.57;;
20731;SDS011;10527;52.124;5.196;2023-12-14T14:00:16;8.33;;;6.03;;
20731;SDS011;10527;52.124;5.196;2023-12-14T14:02:45;8.23;;;6.00;;
20731;SDS011;10527;52.124;5.196;2023-12-14T14:05:12;7.63;;;6.57;;
20731;SDS011;10527;52.124;5.196;2023-12-14T14:10:12;7.77;;;5.60;;
20731;SDS011;10527;52.124;5.196;2023-12-14T14:12:41;8.33;;;6.40;;
20731;SDS011;10527;52.124;5.196;2023-12-14T14:15:11;10.50;;;6.20;;
20731;SDS011;10527;52.124;5.196;2023-12-14T14:17:39;10.17;;;6.13;;
20731;SDS011;10527;52.124;5.196;2023-12-14T14:20:07;7.40;;;6.33;;
20731;SDS011;10527;52.124;5.196;2023-12-14T14:22:39;8.00;;;5.83;;
20731;SDS011;10527;52.124;5.196;2023-12-14T14:25:07;6.73;;;5.57;;
20731;SDS011;10527;52.124;5.196;2023-12-14T14:27:35;9.70;;;6.83;;
20731;SDS011;10527;52.124;5.196;2023-12-14T14:30:03;7.87;;;5.83;;
20731;SDS011;10527;52.124;5.196;2023-12-14T14:32:32;8.50;;;5.73;;
20731;SDS011;10527;52.124;5.196;2023-12-14T14:35:04;6.17;;;5.07;;
20731;SDS011;10527;52.124;5.196;2023-12-14T14:37:33;6.60;;;5.53;;
20731;SDS011;10527;52.124;5.196;2023-12-14T14:40:00;23.40;;;7.43;;
20731;SDS011;10527;52.124;5.196;2023-12-14T14:42:30;7.17;;;5.10;;
20731;SDS011;10527;52.124;5.196;2023-12-14T14:44:58;6.67;;;5.70;;
20731;SDS011;10527;52.124;5.196;2023-12-14T14:47:31;9.83;;;5.40;;
20731;SDS011;10527;52.124;5.196;2023-12-14T14:49:58;7.30;;;5.30;;
20731;SDS011;10527;52.124;5.196;2023-12-14T14:52:30;7.97;;;6.20;;
20731;SDS011;10527;52.124;5.196;2023-12-14T14:54:58;7.67;;;5.93;;
20731;SDS011;10527;52.124;5.196;2023-12-14T14:57:25;7.47;;;5.77;;
20731;SDS011;10527;52.124;5.196;2023-12-14T14:59:54;7.67;;;5.40;;
20731;SDS011;10527;52.124;5.196;2023-12-14T15:02:22;7.17;;;4.83;;
20731;SDS011;10527;52.124;5.196;2023-12-14T15:04:50;10.63;;;5.27;;
20731;SDS011;10527;52.124;5.196;2023-12-14T15:09:53;8.10;;;5.87;;